createdAt,value
2017-11-13T00:01:44.839Z,0.00
2017-11-13T00:02:44.855Z,0.00
2017-11-13T00:04:38.251Z,0.00
2017-11-13T00:05:38.228Z,0.00
2017-11-13T00:07:31.609Z,0.00
2017-11-13T00:08:31.598Z,0.00
2017-11-13T00:10:25.008Z,0.00
2017-11-13T00:11:25.061Z,0.00
2017-11-13T00:13:18.376Z,0.00
2017-11-13T00:14:18.378Z,0.00
2017-11-13T00:16:11.763Z,0.00
2017-11-13T00:17:11.768Z,0.00
2017-11-13T00:19:05.139Z,0.00
2017-11-13T00:20:05.150Z,0.00
2017-11-13T00:21:58.536Z,0.00
2017-11-13T00:22:58.568Z,0.00
2017-11-13T00:24:51.936Z,0.00
2017-11-13T00:25:52.003Z,0.00
2017-11-13T00:27:45.324Z,0.00
2017-11-13T00:28:45.319Z,0.00
2017-11-13T00:30:38.668Z,0.00
2017-11-13T00:31:38.665Z,0.00
2017-11-13T00:33:32.060Z,0.00
2017-11-13T00:34:32.084Z,0.00
2017-11-13T00:36:25.442Z,0.00
2017-11-13T00:37:25.466Z,0.00
2017-11-13T00:39:18.846Z,0.00
2017-11-13T00:40:18.872Z,0.00
2017-11-13T00:42:12.218Z,0.00
2017-11-13T00:43:12.206Z,0.00
2017-11-13T00:45:05.636Z,0.00
2017-11-13T00:46:05.640Z,0.00
2017-11-13T00:47:58.972Z,0.00
2017-11-13T00:48:58.985Z,0.00
2017-11-13T00:50:52.412Z,0.00
2017-11-13T00:51:52.369Z,0.00
2017-11-13T00:53:45.745Z,0.00
2017-11-13T00:54:45.743Z,0.00
2017-11-13T00:56:39.159Z,0.00
2017-11-13T00:57:39.142Z,0.00
2017-11-13T00:59:32.527Z,0.00
2017-11-13T01:00:32.525Z,0.00
2017-11-13T01:02:25.930Z,0.00
2017-11-13T01:03:25.897Z,0.00
2017-11-13T01:05:19.252Z,0.00
2017-11-13T01:06:19.312Z,0.00
2017-11-13T01:08:12.653Z,0.00
2017-11-13T01:09:12.689Z,0.00
2017-11-13T01:11:06.057Z,0.00
2017-11-13T01:12:06.045Z,0.00
2017-11-13T01:13:59.455Z,0.00
2017-11-13T01:14:59.397Z,0.00
2017-11-13T01:16:52.806Z,0.00
2017-11-13T01:17:52.800Z,0.00
2017-11-13T01:19:46.177Z,0.00
2017-11-13T01:20:46.189Z,0.00
2017-11-13T01:22:39.606Z,0.00
2017-11-13T01:23:39.576Z,0.00
2017-11-13T01:25:32.939Z,0.00
2017-11-13T01:26:32.978Z,0.00
2017-11-13T01:28:26.392Z,0.00
2017-11-13T01:29:26.343Z,0.00
2017-11-13T01:31:19.708Z,0.00
2017-11-13T01:32:19.755Z,0.00
2017-11-13T01:34:13.134Z,0.00
2017-11-13T01:35:13.121Z,0.00
2017-11-13T01:37:06.464Z,0.00
2017-11-13T01:38:06.494Z,0.00
2017-11-13T01:39:59.879Z,0.00
2017-11-13T01:40:59.848Z,0.00
2017-11-13T01:42:53.232Z,0.00
2017-11-13T01:43:53.259Z,0.00
2017-11-13T01:45:46.664Z,0.00
2017-11-13T01:46:46.610Z,0.00
2017-11-13T01:48:39.987Z,0.00
2017-11-13T01:49:40.027Z,0.00
2017-11-13T01:51:33.417Z,0.00
2017-11-13T01:52:33.399Z,0.00
2017-11-13T01:54:26.765Z,0.00
2017-11-13T01:55:26.769Z,0.00
2017-11-13T01:57:20.174Z,0.00
2017-11-13T01:58:20.187Z,0.00
2017-11-13T02:00:13.579Z,0.00
2017-11-13T02:01:13.534Z,0.00
2017-11-13T02:03:06.905Z,0.00
2017-11-13T02:04:06.922Z,0.00
2017-11-13T02:06:00.312Z,0.00
2017-11-13T02:07:00.279Z,0.00
2017-11-13T02:08:53.707Z,0.00
2017-11-13T02:09:53.671Z,0.00
2017-11-13T02:11:47.051Z,0.00
2017-11-13T02:12:47.077Z,0.00
2017-11-13T02:14:40.452Z,0.00
2017-11-13T02:15:40.425Z,0.00
2017-11-13T02:17:33.795Z,0.00
2017-11-13T02:18:33.811Z,0.00
2017-11-13T02:20:27.238Z,0.00
2017-11-13T02:21:27.222Z,0.00
2017-11-13T02:23:20.592Z,0.00
2017-11-13T02:24:20.601Z,0.00
2017-11-13T02:26:13.976Z,0.00
2017-11-13T02:27:13.957Z,0.00
2017-11-13T02:29:07.341Z,0.00
2017-11-13T02:30:07.343Z,0.00
2017-11-13T02:32:00.734Z,0.00
2017-11-13T02:33:00.707Z,0.00
2017-11-13T02:34:54.098Z,0.00
2017-11-13T02:35:54.117Z,0.00
2017-11-13T02:37:47.506Z,0.00
2017-11-13T02:38:47.491Z,0.00
2017-11-13T02:40:40.874Z,0.00
2017-11-13T02:41:40.865Z,0.00
2017-11-13T02:43:34.369Z,0.00
2017-11-13T02:44:34.313Z,0.00
2017-11-13T02:46:27.696Z,0.00
2017-11-13T02:47:27.687Z,0.00
2017-11-13T02:49:21.083Z,0.00
2017-11-13T02:50:21.034Z,0.00
2017-11-13T02:52:14.420Z,0.00
2017-11-13T02:53:14.432Z,0.00
2017-11-13T02:55:07.793Z,0.00
2017-11-13T02:56:07.798Z,0.00
2017-11-13T02:58:01.170Z,0.00
2017-11-13T02:59:01.181Z,0.00
2017-11-13T03:00:54.559Z,0.00
2017-11-13T03:01:54.573Z,0.00
2017-11-13T03:03:47.944Z,0.00
2017-11-13T03:04:47.955Z,0.00
2017-11-13T03:06:41.329Z,0.00
2017-11-13T03:07:41.312Z,0.00
2017-11-13T03:09:35.705Z,0.00
2017-11-13T03:10:35.729Z,0.00
2017-11-13T03:12:29.117Z,0.00
2017-11-13T03:13:29.116Z,0.00
2017-11-13T03:15:22.476Z,0.00
2017-11-13T03:16:22.467Z,0.00
2017-11-13T03:18:15.887Z,0.00
2017-11-13T03:19:15.882Z,0.00
2017-11-13T03:21:09.326Z,0.00
2017-11-13T03:22:09.306Z,0.00
2017-11-13T03:24:02.709Z,0.00
2017-11-13T03:25:02.686Z,0.00
2017-11-13T03:26:56.061Z,0.00
2017-11-13T03:27:56.096Z,0.00
2017-11-13T03:29:49.482Z,0.00
2017-11-13T03:30:49.472Z,0.00
2017-11-13T03:32:42.827Z,0.00
2017-11-13T03:33:42.830Z,0.00
2017-11-13T03:35:36.220Z,0.00
2017-11-13T03:36:36.232Z,0.00
2017-11-13T03:38:29.599Z,0.00
2017-11-13T03:39:29.588Z,0.00
2017-11-13T03:41:23.005Z,0.00
2017-11-13T03:42:22.994Z,0.00
2017-11-13T03:44:17.363Z,0.00
2017-11-13T03:45:17.382Z,0.00
2017-11-13T03:47:10.758Z,0.00
2017-11-13T03:48:10.749Z,0.00
2017-11-13T03:50:04.158Z,0.00
2017-11-13T03:51:04.152Z,0.00
2017-11-13T03:52:57.522Z,0.00
2017-11-13T03:53:57.523Z,0.00
2017-11-13T03:55:50.885Z,0.00
2017-11-13T03:56:50.887Z,0.00
2017-11-13T03:58:44.312Z,0.00
2017-11-13T03:59:44.308Z,0.00
2017-11-13T04:01:37.638Z,0.00
2017-11-13T04:02:37.672Z,0.00
2017-11-13T04:04:31.093Z,0.00
2017-11-13T04:05:31.048Z,0.00
2017-11-13T04:07:24.421Z,0.00
2017-11-13T04:08:24.444Z,0.00
2017-11-13T04:10:17.846Z,0.00
2017-11-13T04:11:17.815Z,0.00
2017-11-13T04:13:11.191Z,0.00
2017-11-13T04:14:11.178Z,0.00
2017-11-13T04:16:04.596Z,0.00
2017-11-13T04:17:04.604Z,0.00
2017-11-13T04:18:57.957Z,0.00
2017-11-13T04:19:57.962Z,0.00
2017-11-13T04:21:51.354Z,0.00
2017-11-13T04:22:51.351Z,0.00
2017-11-13T04:24:44.734Z,0.00
2017-11-13T04:25:44.725Z,0.00
2017-11-13T04:27:38.109Z,0.00
2017-11-13T04:28:38.118Z,0.00
2017-11-13T04:30:31.512Z,0.00
2017-11-13T04:31:31.483Z,0.00
2017-11-13T04:33:24.890Z,0.00
2017-11-13T04:34:24.880Z,0.00
2017-11-13T04:36:18.308Z,0.00
2017-11-13T04:37:18.269Z,0.00
2017-11-13T04:39:11.664Z,0.00
2017-11-13T04:40:11.655Z,0.00
2017-11-13T04:42:05.037Z,0.00
2017-11-13T04:43:05.060Z,0.00
2017-11-13T04:44:58.480Z,0.00
2017-11-13T04:45:58.420Z,0.00
2017-11-13T04:47:51.783Z,0.00
2017-11-13T04:48:51.803Z,0.00
2017-11-13T04:50:45.231Z,0.00
2017-11-13T04:51:45.178Z,0.00
2017-11-13T04:53:38.554Z,0.00
2017-11-13T04:54:38.566Z,0.00
2017-11-13T04:56:31.956Z,0.00
2017-11-13T04:57:31.944Z,0.00
2017-11-13T04:59:25.319Z,0.00
2017-11-13T05:00:25.331Z,0.00
2017-11-13T05:02:18.717Z,0.00
2017-11-13T05:03:18.717Z,0.00
2017-11-13T05:05:12.103Z,0.00
2017-11-13T05:06:12.100Z,0.00
2017-11-13T05:08:05.480Z,0.00
2017-11-13T05:09:05.472Z,0.00
2017-11-13T05:10:58.891Z,0.00
2017-11-13T05:11:58.836Z,0.00
2017-11-13T05:13:52.289Z,0.00
2017-11-13T05:14:52.292Z,0.00
2017-11-13T05:16:45.653Z,0.00
2017-11-13T05:17:45.650Z,0.00
2017-11-13T05:19:39.087Z,0.00
2017-11-13T05:20:39.033Z,0.00
2017-11-13T05:22:32.423Z,0.00
2017-11-13T05:23:32.442Z,0.00
2017-11-13T05:25:25.823Z,0.00
2017-11-13T05:26:25.814Z,0.00
2017-11-13T05:28:26.884Z,0.00
2017-11-13T05:29:19.229Z,0.00
2017-11-13T05:31:12.599Z,0.00
2017-11-13T05:32:12.598Z,0.00
2017-11-13T05:34:06.014Z,0.00
2017-11-13T05:35:05.975Z,0.00
2017-11-13T05:36:59.389Z,0.00
2017-11-13T05:37:59.366Z,0.00
2017-11-13T05:39:52.749Z,0.00
2017-11-13T05:40:52.753Z,0.00
2017-11-13T05:42:46.201Z,0.00
2017-11-13T05:43:46.142Z,0.00
2017-11-13T05:45:39.577Z,0.00
2017-11-13T05:46:39.583Z,0.00
2017-11-13T05:48:32.905Z,0.00
2017-11-13T05:49:32.968Z,0.00
2017-11-13T05:51:26.279Z,0.00
2017-11-13T05:52:26.315Z,0.00
2017-11-13T05:54:19.700Z,0.00
2017-11-13T05:55:19.717Z,0.00
2017-11-13T05:57:13.091Z,0.00
2017-11-13T05:58:13.106Z,0.00
2017-11-13T06:00:06.537Z,0.00
2017-11-13T06:01:06.459Z,0.00
2017-11-13T06:02:59.804Z,0.00
2017-11-13T06:03:59.847Z,0.00
2017-11-13T06:05:53.244Z,0.00
2017-11-13T06:06:53.232Z,0.00
2017-11-13T06:08:46.601Z,0.00
2017-11-13T06:09:46.626Z,0.00
2017-11-13T06:11:40.013Z,0.00
2017-11-13T06:12:40.019Z,0.00
2017-11-13T06:14:33.341Z,0.00
2017-11-13T06:15:33.359Z,0.00
2017-11-13T06:17:26.823Z,0.00
2017-11-13T06:18:26.791Z,0.00
2017-11-13T06:20:20.190Z,0.00
2017-11-13T06:21:20.172Z,0.00
2017-11-13T06:23:13.564Z,0.00
2017-11-13T06:24:13.562Z,0.00
2017-11-13T06:26:06.913Z,0.00
2017-11-13T06:27:06.935Z,0.00
2017-11-13T06:29:00.311Z,0.00
2017-11-13T06:30:00.325Z,0.00
2017-11-13T06:31:53.728Z,0.00
2017-11-13T06:32:53.724Z,0.00
2017-11-13T06:34:48.159Z,5.63
2017-11-13T06:35:48.147Z,5.63
2017-11-13T06:37:41.582Z,5.63
2017-11-13T06:38:41.491Z,11.25
2017-11-13T06:40:34.911Z,11.25
2017-11-13T06:41:34.880Z,11.25
2017-11-13T06:43:28.305Z,11.25
2017-11-13T06:44:28.299Z,11.25
2017-11-13T06:46:21.622Z,11.25
2017-11-13T06:47:21.642Z,11.25
2017-11-13T06:49:15.075Z,11.25
2017-11-13T06:50:15.073Z,11.25
2017-11-13T06:52:08.439Z,11.25
2017-11-13T06:53:08.409Z,11.25
2017-11-13T06:55:01.782Z,16.88
2017-11-13T06:56:01.854Z,16.88
2017-11-13T06:57:55.171Z,16.88
2017-11-13T06:58:55.157Z,16.88
2017-11-13T07:00:48.539Z,16.88
2017-11-13T07:01:48.628Z,11.25
2017-11-13T07:03:42.016Z,11.25
2017-11-13T07:04:41.953Z,11.25
2017-11-13T07:06:35.339Z,16.88
2017-11-13T07:07:35.352Z,16.88
2017-11-13T07:09:28.778Z,16.88
2017-11-13T07:10:28.768Z,16.88
2017-11-13T07:12:22.132Z,22.50
2017-11-13T07:13:22.125Z,22.50
2017-11-13T07:15:15.484Z,28.13
2017-11-13T07:16:15.514Z,28.13
2017-11-13T07:18:08.864Z,22.50
2017-11-13T07:19:08.877Z,16.88
2017-11-13T07:21:02.311Z,11.25
2017-11-13T07:22:02.296Z,11.25
2017-11-13T07:23:55.678Z,11.25
2017-11-13T07:24:55.702Z,11.25
2017-11-13T07:26:49.087Z,16.88
2017-11-13T07:27:49.063Z,16.88
2017-11-13T07:29:42.424Z,22.50
2017-11-13T07:30:42.429Z,28.13
2017-11-13T07:32:35.823Z,39.38
2017-11-13T07:33:35.810Z,45.00
2017-11-13T07:35:29.186Z,50.63
2017-11-13T07:36:29.195Z,56.25
2017-11-13T07:38:22.601Z,61.88
2017-11-13T07:39:22.591Z,61.88
2017-11-13T07:41:15.963Z,50.63
2017-11-13T07:42:16.017Z,50.63
2017-11-13T07:44:09.364Z,61.88
2017-11-13T07:45:09.368Z,67.50
2017-11-13T07:47:02.727Z,61.88
2017-11-13T07:48:02.737Z,61.88
2017-11-13T07:49:56.135Z,56.25
2017-11-13T07:50:56.124Z,61.88
2017-11-13T07:52:49.525Z,73.13
2017-11-13T07:53:49.529Z,78.75
2017-11-13T07:55:42.912Z,90.00
2017-11-13T07:56:42.908Z,95.63
2017-11-13T07:58:36.285Z,123.75
2017-11-13T07:59:36.295Z,135.00
2017-11-13T08:01:29.691Z,140.63
2017-11-13T08:02:29.680Z,140.63
2017-11-13T08:04:23.051Z,129.38
2017-11-13T08:05:23.060Z,135.00
2017-11-13T08:07:16.535Z,135.00
2017-11-13T08:08:16.434Z,135.00
2017-11-13T08:10:09.810Z,140.63
2017-11-13T08:11:09.840Z,135.00
2017-11-13T08:13:03.240Z,135.00
2017-11-13T08:14:03.241Z,129.38
2017-11-13T08:15:56.594Z,106.88
2017-11-13T08:16:56.618Z,101.25
2017-11-13T08:18:50.014Z,101.25
2017-11-13T08:19:50.028Z,95.63
2017-11-13T08:21:43.380Z,95.63
2017-11-13T08:22:43.400Z,90.00
2017-11-13T08:24:36.781Z,101.25
2017-11-13T08:25:36.806Z,95.63
2017-11-13T08:27:30.176Z,157.50
2017-11-13T08:28:30.169Z,185.63
2017-11-13T08:30:23.557Z,151.88
2017-11-13T08:31:23.567Z,151.88
2017-11-13T08:33:16.942Z,135.00
2017-11-13T08:34:16.955Z,112.50
2017-11-13T08:36:10.321Z,129.38
2017-11-13T08:37:10.315Z,123.75
2017-11-13T08:39:03.763Z,106.88
2017-11-13T08:40:03.712Z,129.38
2017-11-13T08:41:57.092Z,163.13
2017-11-13T08:42:57.098Z,157.50
2017-11-13T08:44:50.483Z,168.75
2017-11-13T08:45:50.465Z,157.50
2017-11-13T08:47:43.879Z,230.63
2017-11-13T08:48:43.874Z,213.75
2017-11-13T08:50:37.257Z,264.38
2017-11-13T08:51:37.244Z,331.88
2017-11-13T08:53:30.627Z,298.13
2017-11-13T08:54:30.626Z,275.63
2017-11-13T08:56:24.006Z,225.00
2017-11-13T08:57:24.044Z,253.13
2017-11-13T08:59:17.417Z,208.13
2017-11-13T09:00:17.413Z,247.50
2017-11-13T09:02:10.789Z,281.25
2017-11-13T09:03:10.813Z,219.38
2017-11-13T09:05:05.255Z,309.38
2017-11-13T09:06:05.244Z,331.88
2017-11-13T09:07:58.611Z,270.00
2017-11-13T09:08:58.606Z,270.00
2017-11-13T09:10:51.984Z,180.00
2017-11-13T09:11:51.971Z,202.50
2017-11-13T09:13:45.389Z,123.75
2017-11-13T09:14:45.417Z,123.75
2017-11-13T09:16:38.773Z,191.25
2017-11-13T09:17:38.777Z,213.75
2017-11-13T09:19:32.120Z,191.25
2017-11-13T09:20:32.160Z,151.88
2017-11-13T09:22:26.560Z,180.00
2017-11-13T09:23:26.535Z,140.63
2017-11-13T09:25:19.927Z,151.88
2017-11-13T09:26:19.947Z,151.88
2017-11-13T09:28:13.312Z,236.25
2017-11-13T09:29:13.282Z,275.63
2017-11-13T09:31:06.758Z,196.88
2017-11-13T09:32:06.703Z,247.50
2017-11-13T09:34:00.115Z,241.88
2017-11-13T09:35:00.146Z,331.88
2017-11-13T09:36:53.546Z,326.25
2017-11-13T09:37:53.606Z,258.75
2017-11-13T09:39:46.949Z,247.50
2017-11-13T09:40:46.941Z,241.88
2017-11-13T09:42:40.390Z,219.38
2017-11-13T09:43:40.338Z,230.63
2017-11-13T09:45:33.715Z,303.75
2017-11-13T09:46:33.739Z,331.88
2017-11-13T09:48:27.099Z,365.63
2017-11-13T09:49:27.074Z,354.38
2017-11-13T09:51:20.478Z,348.75
2017-11-13T09:52:20.476Z,320.63
2017-11-13T09:54:13.896Z,303.75
2017-11-13T09:55:13.866Z,281.25
2017-11-13T09:57:07.245Z,292.50
2017-11-13T09:58:07.287Z,326.25
2017-11-13T10:00:00.640Z,360.00
2017-11-13T10:01:00.622Z,360.00
2017-11-13T10:02:54.007Z,388.13
2017-11-13T10:03:54.011Z,371.25
2017-11-13T10:05:47.428Z,416.25
2017-11-13T10:06:47.425Z,472.50
2017-11-13T10:08:40.824Z,500.63
2017-11-13T10:09:40.802Z,517.50
2017-11-13T10:11:34.187Z,483.75
2017-11-13T10:12:34.196Z,517.50
2017-11-13T10:14:27.599Z,590.63
2017-11-13T10:15:27.577Z,478.13
2017-11-13T10:17:20.973Z,281.25
2017-11-13T10:18:20.974Z,253.13
2017-11-13T10:20:14.426Z,225.00
2017-11-13T10:21:14.369Z,213.75
2017-11-13T10:23:07.761Z,219.38
2017-11-13T10:24:07.757Z,219.38
2017-11-13T10:26:01.165Z,146.25
2017-11-13T10:27:01.153Z,101.25
2017-11-13T10:28:54.529Z,90.00
2017-11-13T10:29:54.546Z,146.25
2017-11-13T10:31:47.947Z,196.88
2017-11-13T10:32:47.931Z,174.38
2017-11-13T10:34:41.315Z,185.63
2017-11-13T10:35:41.320Z,180.00
2017-11-13T10:37:34.721Z,219.38
2017-11-13T10:38:34.762Z,208.13
2017-11-13T10:40:28.101Z,225.00
2017-11-13T10:41:28.102Z,236.25
2017-11-13T10:43:21.515Z,247.50
2017-11-13T10:44:21.503Z,236.25
2017-11-13T10:46:14.872Z,270.00
2017-11-13T10:47:14.890Z,315.00
2017-11-13T10:49:08.287Z,911.25
2017-11-13T10:50:08.265Z,601.88
2017-11-13T10:52:01.652Z,601.88
2017-11-13T10:53:01.687Z,590.63
2017-11-13T10:54:55.075Z,573.75
2017-11-13T10:55:55.183Z,298.13
2017-11-13T10:57:48.461Z,241.88
2017-11-13T10:58:48.452Z,213.75
2017-11-13T11:00:41.846Z,225.00
2017-11-13T11:01:41.835Z,236.25
2017-11-13T11:03:35.215Z,292.50
2017-11-13T11:04:35.223Z,320.63
2017-11-13T11:06:28.626Z,315.00
2017-11-13T11:07:28.610Z,326.25
2017-11-13T11:09:22.028Z,337.50
2017-11-13T11:10:22.015Z,320.63
2017-11-13T11:12:15.406Z,354.38
2017-11-13T11:13:15.392Z,427.50
2017-11-13T11:15:08.802Z,765.00
2017-11-13T11:16:08.784Z,573.75
2017-11-13T11:18:02.191Z,624.38
2017-11-13T11:19:02.174Z,562.50
2017-11-13T11:20:55.559Z,697.50
2017-11-13T11:21:55.565Z,241.88
2017-11-13T11:23:48.978Z,112.50
2017-11-13T11:24:48.974Z,90.00
2017-11-13T11:26:42.373Z,73.13
2017-11-13T11:27:42.358Z,73.13
2017-11-13T11:29:35.740Z,73.13
2017-11-13T11:30:35.757Z,95.63
2017-11-13T11:32:29.155Z,163.13
2017-11-13T11:33:29.147Z,135.00
2017-11-13T11:35:22.523Z,101.25
2017-11-13T11:36:22.531Z,106.88
2017-11-13T11:38:15.927Z,135.00
2017-11-13T11:39:15.914Z,146.25
2017-11-13T11:41:09.299Z,213.75
2017-11-13T11:42:09.323Z,236.25
2017-11-13T11:44:02.710Z,258.75
2017-11-13T11:45:02.690Z,264.38
2017-11-13T11:46:56.076Z,281.25
2017-11-13T11:47:56.075Z,298.13
2017-11-13T11:49:49.479Z,421.88
2017-11-13T11:50:49.472Z,472.50
2017-11-13T11:52:42.853Z,495.00
2017-11-13T11:53:42.856Z,506.25
2017-11-13T11:55:36.294Z,478.13
2017-11-13T11:56:36.290Z,461.25
2017-11-13T11:58:29.665Z,405.00
2017-11-13T11:59:29.673Z,371.25
2017-11-13T12:01:23.085Z,354.38
2017-11-13T12:02:23.071Z,365.63
2017-11-13T12:04:16.441Z,461.25
2017-11-13T12:05:16.460Z,495.00
2017-11-13T12:07:09.857Z,528.75
2017-11-13T12:08:09.839Z,562.50
2017-11-13T12:10:03.244Z,489.38
2017-11-13T12:11:03.227Z,438.75
2017-11-13T12:12:56.617Z,444.38
2017-11-13T12:13:56.630Z,433.13
2017-11-13T12:15:50.022Z,416.25
2017-11-13T12:16:50.017Z,416.25
2017-11-13T12:18:43.398Z,315.00
2017-11-13T12:19:43.408Z,275.63
2017-11-13T12:21:36.803Z,253.13
2017-11-13T12:22:36.817Z,258.75
2017-11-13T12:24:30.174Z,292.50
2017-11-13T12:25:30.178Z,286.88
2017-11-13T12:27:23.581Z,326.25
2017-11-13T12:28:23.571Z,320.63
2017-11-13T12:30:16.957Z,247.50
2017-11-13T12:31:16.965Z,225.00
2017-11-13T12:33:10.365Z,258.75
2017-11-13T12:34:10.350Z,292.50
2017-11-13T12:36:03.730Z,298.13
2017-11-13T12:37:03.739Z,309.38
2017-11-13T12:38:57.136Z,444.38
2017-11-13T12:39:57.136Z,438.75
2017-11-13T12:41:50.509Z,416.25
2017-11-13T12:42:50.516Z,466.88
2017-11-13T12:44:43.924Z,635.63
2017-11-13T12:45:43.909Z,596.25
2017-11-13T12:47:37.288Z,444.38
2017-11-13T12:48:37.291Z,444.38
2017-11-13T12:50:30.724Z,393.75
2017-11-13T12:51:30.700Z,348.75
2017-11-13T12:53:24.104Z,303.75
2017-11-13T12:54:24.116Z,315.00
2017-11-13T12:56:17.512Z,320.63
2017-11-13T12:57:17.471Z,286.88
2017-11-13T12:59:10.857Z,196.88
2017-11-13T13:00:10.860Z,196.88
2017-11-13T13:02:04.280Z,191.25
2017-11-13T13:03:04.264Z,208.13
2017-11-13T13:04:57.646Z,225.00
2017-11-13T13:05:57.652Z,213.75
2017-11-13T13:07:51.049Z,208.13
2017-11-13T13:08:51.039Z,213.75
2017-11-13T13:10:44.428Z,253.13
2017-11-13T13:11:44.438Z,225.00
2017-11-13T13:13:37.828Z,151.88
2017-11-13T13:14:37.812Z,140.63
2017-11-13T13:16:31.203Z,123.75
2017-11-13T13:17:31.202Z,123.75
2017-11-13T13:19:24.612Z,140.63
2017-11-13T13:20:24.601Z,168.75
2017-11-13T13:22:17.998Z,219.38
2017-11-13T13:23:17.996Z,225.00
2017-11-13T13:25:11.393Z,219.38
2017-11-13T13:26:11.369Z,219.38
2017-11-13T13:28:04.759Z,236.25
2017-11-13T13:29:04.771Z,236.25
2017-11-13T13:30:58.169Z,230.63
2017-11-13T13:31:58.159Z,196.88
2017-11-13T13:33:51.539Z,168.75
2017-11-13T13:34:51.553Z,123.75
2017-11-13T13:36:44.954Z,84.38
2017-11-13T13:37:44.934Z,73.13
2017-11-13T13:39:38.319Z,129.38
2017-11-13T13:40:38.343Z,174.38
2017-11-13T13:42:31.741Z,191.25
2017-11-13T13:43:31.711Z,151.88
2017-11-13T13:45:25.110Z,123.75
2017-11-13T13:46:25.103Z,95.63
2017-11-13T13:48:18.503Z,56.25
2017-11-13T13:49:18.501Z,45.00
2017-11-13T13:51:11.888Z,39.38
2017-11-13T13:52:11.885Z,45.00
2017-11-13T13:54:05.291Z,56.25
2017-11-13T13:55:05.275Z,50.63
2017-11-13T13:56:58.669Z,50.63
2017-11-13T13:57:58.668Z,61.88
2017-11-13T13:59:52.226Z,73.13
2017-11-13T14:00:52.082Z,67.50
2017-11-13T14:02:45.450Z,56.25
2017-11-13T14:03:45.452Z,61.88
2017-11-13T14:05:39.070Z,56.25
2017-11-13T14:06:38.895Z,56.25
2017-11-13T14:08:33.497Z,61.88
2017-11-13T14:09:33.340Z,67.50
2017-11-13T14:11:26.634Z,67.50
2017-11-13T14:12:26.779Z,67.50
2017-11-13T14:14:20.007Z,73.13
2017-11-13T14:15:20.007Z,61.88
2017-11-13T14:17:13.406Z,50.63
2017-11-13T14:18:13.392Z,50.63
2017-11-13T14:20:06.779Z,56.25
2017-11-13T14:21:06.779Z,61.88
2017-11-13T14:23:00.180Z,73.13
2017-11-13T14:24:00.165Z,67.50
2017-11-13T14:25:53.564Z,45.00
2017-11-13T14:26:53.565Z,45.00
2017-11-13T14:28:46.966Z,56.25
2017-11-13T14:29:46.953Z,45.00
2017-11-13T14:31:40.333Z,28.13
2017-11-13T14:32:40.336Z,28.13
2017-11-13T14:34:33.740Z,33.75
2017-11-13T14:35:33.718Z,33.75
2017-11-13T14:37:27.103Z,28.13
2017-11-13T14:38:27.131Z,22.50
2017-11-13T14:40:20.510Z,16.88
2017-11-13T14:41:20.504Z,11.25
2017-11-13T14:43:13.881Z,11.25
2017-11-13T14:44:13.901Z,11.25
2017-11-13T14:46:07.282Z,11.25
2017-11-13T14:47:07.268Z,11.25
2017-11-13T14:49:00.659Z,11.25
2017-11-13T14:50:00.675Z,11.25
2017-11-13T14:51:54.057Z,11.25
2017-11-13T14:52:54.039Z,16.88
2017-11-13T14:54:47.427Z,22.50
2017-11-13T14:55:47.430Z,22.50
2017-11-13T14:57:40.843Z,33.75
2017-11-13T14:58:40.880Z,39.38
2017-11-13T15:00:34.226Z,39.38
2017-11-13T15:01:34.229Z,50.63
2017-11-13T15:03:27.802Z,56.25
2017-11-13T15:04:27.636Z,56.25
2017-11-13T15:06:21.006Z,56.25
2017-11-13T15:07:21.019Z,50.63
2017-11-13T15:09:14.468Z,45.00
2017-11-13T15:10:14.431Z,45.00
2017-11-13T15:12:07.789Z,50.63
2017-11-13T15:13:07.825Z,50.63
2017-11-13T15:15:01.231Z,50.63
2017-11-13T15:16:01.189Z,50.63
2017-11-13T15:17:54.546Z,45.00
2017-11-13T15:18:54.562Z,45.00
2017-11-13T15:20:48.034Z,33.75
2017-11-13T15:21:48.034Z,33.75
2017-11-13T15:23:41.438Z,28.13
2017-11-13T15:24:41.364Z,28.13
2017-11-13T15:26:34.831Z,22.50
2017-11-13T15:27:34.749Z,22.50
2017-11-13T15:29:28.129Z,16.88
2017-11-13T15:30:28.189Z,16.88
2017-11-13T15:32:21.508Z,11.25
2017-11-13T15:33:21.595Z,11.25
2017-11-13T15:35:14.910Z,5.63
2017-11-13T15:36:14.976Z,5.63
2017-11-13T15:38:08.501Z,5.63
2017-11-13T15:39:08.532Z,5.63
2017-11-13T15:41:01.852Z,5.63
2017-11-13T15:42:01.776Z,5.63
2017-11-13T15:43:55.454Z,5.63
2017-11-13T15:44:55.183Z,0.00
2017-11-13T15:46:49.548Z,0.00
2017-11-13T15:47:49.602Z,0.00
2017-11-13T15:49:42.968Z,0.00
2017-11-13T15:50:43.017Z,0.00
2017-11-13T15:52:36.414Z,0.00
2017-11-13T15:53:36.334Z,0.00
2017-11-13T15:55:29.666Z,0.00
2017-11-13T15:56:29.679Z,0.00
2017-11-13T15:58:24.069Z,0.00
2017-11-13T15:59:24.080Z,0.00
2017-11-13T16:01:17.446Z,0.00
2017-11-13T16:02:17.480Z,0.00
2017-11-13T16:04:10.891Z,0.00
2017-11-13T16:05:10.883Z,0.00
2017-11-13T16:07:04.232Z,0.00
2017-11-13T16:08:04.288Z,0.00
2017-11-13T16:09:57.617Z,0.00
2017-11-13T16:10:57.627Z,0.00
2017-11-13T16:12:51.153Z,0.00
2017-11-13T16:13:51.041Z,0.00
2017-11-13T16:15:44.412Z,0.00
2017-11-13T16:16:44.446Z,0.00
2017-11-13T16:18:37.877Z,0.00
2017-11-13T16:19:37.832Z,0.00
2017-11-13T16:21:31.188Z,0.00
2017-11-13T16:22:31.237Z,0.00
2017-11-13T16:24:24.701Z,0.00
2017-11-13T16:25:24.651Z,0.00
2017-11-13T16:27:18.080Z,0.00
2017-11-13T16:28:18.093Z,0.00
2017-11-13T16:30:11.366Z,0.00
2017-11-13T16:31:11.393Z,0.00
2017-11-13T16:33:04.938Z,0.00
2017-11-13T16:34:04.810Z,0.00
2017-11-13T16:35:58.288Z,0.00
2017-11-13T16:36:58.190Z,0.00
2017-11-13T16:38:52.601Z,0.00
2017-11-13T16:39:52.570Z,0.00
2017-11-13T16:41:45.899Z,0.00
2017-11-13T16:42:45.963Z,0.00
2017-11-13T16:44:39.370Z,0.00
2017-11-13T16:45:39.458Z,0.00
2017-11-13T16:47:32.804Z,0.00
2017-11-13T16:48:32.829Z,0.00
2017-11-13T16:50:26.175Z,0.00
2017-11-13T16:51:26.139Z,0.00
2017-11-13T16:53:19.559Z,0.00
2017-11-13T16:54:19.578Z,0.00
2017-11-13T16:56:12.973Z,0.00
2017-11-13T16:57:12.932Z,0.00
2017-11-13T16:59:06.365Z,0.00
2017-11-13T17:00:06.396Z,0.00
2017-11-13T17:01:59.759Z,0.00
2017-11-13T17:02:59.813Z,0.00
2017-11-13T17:04:53.196Z,0.00
2017-11-13T17:05:53.168Z,0.00
2017-11-13T17:07:46.492Z,0.00
2017-11-13T17:08:46.616Z,0.00
2017-11-13T17:10:39.931Z,0.00
2017-11-13T17:11:39.896Z,0.00
2017-11-13T17:13:33.256Z,0.00
2017-11-13T17:14:33.344Z,0.00
2017-11-13T17:16:27.728Z,0.00
2017-11-13T17:17:27.707Z,0.00
2017-11-13T17:19:21.052Z,0.00
2017-11-13T17:20:21.079Z,0.00
2017-11-13T17:22:16.571Z,0.00
2017-11-13T17:23:15.684Z,0.00
2017-11-13T17:25:09.080Z,0.00
2017-11-13T17:26:09.001Z,0.00
2017-11-13T17:28:02.386Z,0.00
2017-11-13T17:29:02.484Z,0.00
2017-11-13T17:30:56.067Z,0.00
2017-11-13T17:31:55.965Z,0.00
2017-11-13T17:33:57.996Z,0.00
2017-11-13T17:34:50.237Z,0.00
2017-11-13T17:36:51.683Z,0.00
2017-11-13T17:37:43.741Z,0.00
2017-11-13T17:39:37.192Z,0.00
2017-11-13T17:40:37.080Z,0.00
2017-11-13T17:42:30.496Z,0.00
2017-11-13T17:43:30.435Z,0.00
2017-11-13T17:45:24.732Z,0.00
2017-11-13T17:46:24.811Z,0.00
2017-11-13T17:48:18.202Z,0.00
2017-11-13T17:49:18.170Z,0.00
2017-11-13T17:51:11.562Z,0.00
2017-11-13T17:52:11.595Z,0.00
2017-11-13T17:54:04.976Z,0.00
2017-11-13T17:55:04.928Z,0.00
2017-11-13T17:56:58.305Z,0.00
2017-11-13T17:57:58.390Z,0.00
2017-11-13T17:59:51.760Z,0.00
2017-11-13T18:00:51.753Z,0.00
2017-11-13T18:02:45.230Z,0.00
2017-11-13T18:03:45.214Z,0.00
2017-11-13T18:05:38.576Z,0.00
2017-11-13T18:06:38.535Z,0.00
2017-11-13T18:08:32.824Z,0.00
2017-11-13T18:09:32.787Z,0.00
2017-11-13T18:11:26.217Z,0.00
2017-11-13T18:12:26.177Z,0.00
2017-11-13T18:14:19.565Z,0.00
2017-11-13T18:15:19.688Z,0.00
2017-11-13T18:17:13.906Z,0.00
2017-11-13T18:18:13.956Z,0.00
2017-11-13T18:20:08.411Z,0.00
2017-11-13T18:21:07.304Z,0.00
2017-11-13T18:23:00.792Z,0.00
2017-11-13T18:24:00.689Z,0.00
2017-11-13T18:25:54.167Z,0.00
2017-11-13T18:26:54.176Z,0.00
2017-11-13T18:28:47.589Z,0.00
2017-11-13T18:29:47.530Z,0.00
2017-11-13T18:31:40.933Z,0.00
2017-11-13T18:32:40.898Z,0.00
2017-11-13T18:34:34.345Z,0.00
2017-11-13T18:35:34.404Z,0.00
2017-11-13T18:37:27.777Z,0.00
2017-11-13T18:38:27.850Z,0.00
2017-11-13T18:40:21.223Z,0.00
2017-11-13T18:41:21.165Z,0.00
2017-11-13T18:43:14.503Z,0.00
2017-11-13T18:44:14.467Z,0.00
2017-11-13T18:46:08.001Z,0.00